Time,TemperatureF,DewpointF,PressureIn,WindDirection,WindDirectionDegrees,WindSpeedMPH,WindSpeedGustMPH,Humidity,HourlyPrecipIn,Conditions,Clouds,dailyrainin,SoftwareType,DateUTC
2015-05-04 00:04:00,57.8,47.3,30.03,NNE,19,0.4,2.3,68,0.00,CLR,OVC,0.00,WeatherDisplay:10.37,2015-05-04 04:04:00,
2015-05-04 00:09:00,57.9,47.4,30.03,NNE,19,1.1,2.3,68,0.00,CLR,OVC,0.00,WeatherDisplay:10.37,2015-05-04 04:09:00,
2015-05-04 00:14:00,57.9,47.0,30.03,NNE,19,1.6,3.5,67,0.00,CLR,OVC,0.00,WeatherDisplay:10.37,2015-05-04 04:14:00,
2015-05-04 00:19:00,58.0,47.1,30.03,NNE,19,1.0,2.3,67,0.00,CLR,OVC,0.00,WeatherDisplay:10.37,2015-05-04 04:19:00,
2015-05-04 00:24:00,57.7,47.2,30.04,NNE,19,0.5,2.0,68,0.00,CLR,OVC,0.00,WeatherDisplay:10.37,2015-05-04 04:24:00,
2015-05-04 00:29:00,57.3,47.2,30.04,NNE,19,1.2,2.3,69,0.00,CLR,OVC,0.00,WeatherDisplay:10.37,2015-05-04 04:29:00,
2015-05-04 00:34:00,57.1,47.4,30.04,NNE,19,2.1,3.5,70,0.00,CLR,OVC,0.00,WeatherDisplay:10.37,2015-05-04 04:34:00,
2015-05-04 00:39:00,57.0,47.3,30.04,NNE,19,2.0,3.5,70,0.00,CLR,OVC,0.00,WeatherDisplay:10.37,2015-05-04 04:39:00,
2015-05-04 00:44:00,57.0,47.3,30.04,NNE,19,1.9,2.3,70,0.00,CLR,OVC,0.00,WeatherDisplay:10.37,2015-05-04 04:44:00,
2015-05-04 00:49:00,57.0,47.3,30.04,NNE,19,3.0,3.5,70,0.00,CLR,OVC,0.00,WeatherDisplay:10.37,2015-05-04 04:49:00,
2015-05-04 00:54:00,56.9,47.2,30.04,NNE,19,1.0,2.3,70,0.00,CLR,OVC,0.00,WeatherDisplay:10.37,2015-05-04 04:54:00,
2015-05-04 00:59:00,56.9,47.6,30.04,NNE,19,0.8,2.3,71,0.00,CLR,OVC,0.00,WeatherDisplay:10.37,2015-05-04 04:59:00,
2015-05-04 01:04:00,56.5,47.2,30.04,NNE,19,1.9,3.5,71,0.00,CLR,OVC,0.00,WeatherDisplay:10.37,2015-05-04 05:04:00,
2015-05-04 01:09:00,56.2,46.9,30.04,NNE,19,1.6,2.3,71,0.00,CLR,OVC,0.00,WeatherDisplay:10.37,2015-05-04 05:09:00,
2015-05-04 01:14:00,56.1,47.2,30.04,NNE,19,0.7,2.3,72,0.00,CLR,OVC,0.00,WeatherDisplay:10.37,2015-05-04 05:14:00,
2015-05-04 01:19:00,55.6,47.1,30.04,NNE,19,0.0,0.0,73,0.00,CLR,OVC,0.00,WeatherDisplay:10.37,2015-05-04 05:19:00,
2015-05-04 01:24:00,55.7,47.2,30.05,NNE,19,0.9,3.0,73,0.00,CLR,OVC,0.00,WeatherDisplay:10.37,2015-05-04 05:24:00,
2015-05-04 01:29:00,55.9,47.4,30.04,NNE,19,0.0,0.0,73,0.00,CLR,OVC,0.00,WeatherDisplay:10.37,2015-05-04 05:29:00,
2015-05-04 01:34:00,55.8,47.6,30.05,NNE,19,3.8,5.0,74,0.00,CLR,OVC,0.00,WeatherDisplay:10.37,2015-05-04 05:34:00,
2015-05-04 01:39:00,55.8,47.6,30.04,NNE,19,0.0,0.0,74,0.00,CLR,OVC,0.00,WeatherDisplay:10.37,2015-05-04 05:39:00,
2015-05-04 01:44:00,55.8,48.0,30.04,NNE,19,1.7,3.5,75,0.00,CLR,OVC,0.00,WeatherDisplay:10.37,2015-05-04 05:44:00,
2015-05-04 01:49:00,55.7,47.5,30.04,NNE,19,2.7,3.5,74,0.00,CLR,OVC,0.00,WeatherDisplay:10.37,2015-05-04 05:49:00,
2015-05-04 01:54:00,55.8,48.0,30.04,NNE,19,1.7,2.3,75,0.00,CLR,OVC,0.00,WeatherDisplay:10.37,2015-05-04 05:54:00,
2015-05-04 01:59:00,56.0,47.8,30.04,NNE,19,1.4,2.3,74,0.00,CLR,OVC,0.00,WeatherDisplay:10.37,2015-05-04 05:59:00,
2015-05-04 02:04:00,56.1,47.9,30.04,NNE,19,1.1,2.3,74,0.00,CLR,OVC,0.00,WeatherDisplay:10.37,2015-05-04 06:04:00,
2015-05-04 02:09:00,56.2,48.0,30.04,NNE,19,2.0,3.5,74,0.00,CLR,OVC,0.00,WeatherDisplay:10.37,2015-05-04 06:09:00,
2015-05-04 02:14:00,56.2,48.0,30.04,NNE,19,0.9,3.5,74,0.00,CLR,OVC,0.00,WeatherDisplay:10.37,2015-05-04 06:14:00,
2015-05-04 02:19:00,55.7,48.2,30.04,NNE,19,1.6,2.3,76,0.00,CLR,OVC,0.00,WeatherDisplay:10.37,2015-05-04 06:19:00,
2015-05-04 02:24:00,54.8,47.7,30.05,NNE,19,2.9,3.5,77,0.00,CLR,OVC,0.00,WeatherDisplay:10.37,2015-05-04 06:24:00,
2015-05-04 02:29:00,54.5,47.8,30.05,NNE,19,3.5,3.5,78,0.00,CLR,OVC,0.00,WeatherDisplay:10.37,2015-05-04 06:29:00,
2015-05-04 02:34:00,54.6,47.5,30.05,NNE,19,1.0,2.3,77,0.00,CLR,OVC,0.00,WeatherDisplay:10.37,2015-05-04 06:34:00,
2015-05-04 02:39:00,54.8,47.7,30.05,NNE,19,0.9,2.3,77,0.00,CLR,OVC,0.00,WeatherDisplay:10.37,2015-05-04 06:39:00,
2015-05-04 02:44:00,54.8,47.4,30.05,NNE,19,3.4,4.0,76,0.00,CLR,OVC,0.00,WeatherDisplay:10.37,2015-05-04 06:44:00,
2015-05-04 02:49:00,54.9,47.8,30.05,NNE,19,2.0,3.5,77,0.00,CLR,OVC,0.00,WeatherDisplay:10.37,2015-05-04 06:49:00,
2015-05-04 02:54:00,55.2,47.8,30.05,NNE,19,0.0,0.0,76,0.00,CLR,OVC,0.00,WeatherDisplay:10.37,2015-05-04 06:54:00,
2015-05-04 02:59:00,55.5,47.7,30.05,NNE,19,1.3,2.3,75,0.00,CLR,OVC,0.00,WeatherDisplay:10.37,2015-05-04 06:59:00,
2015-05-04 03:04:00,55.6,47.8,30.05,NNE,19,1.4,2.3,75,0.00,CLR,OVC,0.00,WeatherDisplay:10.37,2015-05-04 07:04:00,
2015-05-04 03:09:00,55.5,47.7,30.05,NNE,19,2.8,3.5,75,0.00,CLR,OVC,0.00,WeatherDisplay:10.37,2015-05-04 07:09:00,
2015-05-04 03:14:00,55.5,47.7,30.05,NNE,19,0.9,2.3,75,0.00,CLR,OVC,0.00,WeatherDisplay:10.37,2015-05-04 07:14:00,
2015-05-04 03:19:00,55.3,47.5,30.05,NNE,19,2.2,3.5,75,0.00,CLR,OVC,0.00,WeatherDisplay:10.37,2015-05-04 07:19:00,
2015-05-04 03:24:00,55.4,47.6,30.05,NNE,19,0.1,1.2,75,0.00,CLR,OVC,0.00,WeatherDisplay:10.37,2015-05-04 07:24:00,
2015-05-04 03:29:00,55.5,47.3,30.05,NNE,19,0.4,1.2,74,0.00,CLR,OVC,0.00,WeatherDisplay:10.37,2015-05-04 07:29:00,
2015-05-04 03:34:00,55.6,47.4,30.05,NNE,19,2.1,3.5,74,0.00,CLR,OVC,0.00,WeatherDisplay:10.37,2015-05-04 07:34:00,
2015-05-04 03:39:00,55.2,47.4,30.06,NNE,19,1.3,2.3,75,0.00,CLR,OVC,0.00,WeatherDisplay:10.37,2015-05-04 07:39:00,
2015-05-04 03:44:00,54.8,47.0,30.06,NNE,19,1.0,2.3,75,0.00,CLR,OVC,0.00,WeatherDisplay:10.37,2015-05-04 07:44:00,
2015-05-04 03:49:00,54.5,47.1,30.06,NNE,19,3.6,4.0,76,0.00,CLR,OVC,0.00,WeatherDisplay:10.37,2015-05-04 07:49:00,
2015-05-04 03:54:00,54.3,46.9,30.06,NNE,19,0.1,2.3,76,0.00,CLR,OVC,0.00,WeatherDisplay:10.37,2015-05-04 07:54:00,
2015-05-04 03:59:00,54.5,47.1,30.06,NNE,19,1.6,3.5,76,0.00,CLR,OVC,0.00,WeatherDisplay:10.37,2015-05-04 07:59:00,
2015-05-04 04:04:00,54.5,47.1,30.06,NNE,19,1.0,2.3,76,0.00,CLR,OVC,0.00,WeatherDisplay:10.37,2015-05-04 08:04:00,
2015-05-04 04:09:00,54.3,46.9,30.06,NNE,19,1.9,3.5,76,0.00,CLR,OVC,0.00,WeatherDisplay:10.37,2015-05-04 08:09:00,
2015-05-04 04:14:00,54.1,47.0,30.06,NNE,19,0.0,0.0,77,0.00,CLR,OVC,0.00,WeatherDisplay:10.37,2015-05-04 08:14:00,
2015-05-04 04:19:00,53.8,46.8,30.06,NNE,19,0.0,0.0,77,0.00,CLR,OVC,0.00,WeatherDisplay:10.37,2015-05-04 08:19:00,
2015-05-04 04:24:00,53.7,46.7,30.06,NNE,19,0.0,0.0,77,0.00,CLR,OVC,0.00,WeatherDisplay:10.37,2015-05-04 08:24:00,
2015-05-04 04:29:00,53.6,46.9,30.06,NNE,19,0.0,0.0,78,0.00,CLR,OVC,0.00,WeatherDisplay:10.37,2015-05-04 08:29:00,
2015-05-04 04:34:00,53.7,47.0,30.06,NNE,19,2.0,3.5,78,0.00,CLR,OVC,0.00,WeatherDisplay:10.37,2015-05-04 08:34:00,
2015-05-04 04:39:00,53.7,46.7,30.07,NNE,19,0.0,0.0,77,0.00,CLR,OVC,0.00,WeatherDisplay:10.37,2015-05-04 08:39:00,
2015-05-04 04:44:00,53.5,46.8,30.07,NNE,19,1.8,3.5,78,0.00,CLR,OVC,0.00,WeatherDisplay:10.37,2015-05-04 08:44:00,
2015-05-04 04:49:00,53.6,46.9,30.06,NNE,19,0.0,0.0,78,0.00,CLR,OVC,0.00,WeatherDisplay:10.37,2015-05-04 08:49:00,
2015-05-04 04:54:00,54.0,47.0,30.06,NNE,19,0.1,1.2,77,0.00,CLR,OVC,0.00,WeatherDisplay:10.37,2015-05-04 08:54:00,
2015-05-04 04:59:00,54.2,47.1,30.07,NNE,19,1.4,3.5,77,0.00,CLR,OVC,0.00,WeatherDisplay:10.37,2015-05-04 08:59:00,
2015-05-04 05:04:00,54.1,46.7,30.07,NNE,19,2.0,3.5,76,0.00,CLR,OVC,0.00,WeatherDisplay:10.37,2015-05-04 09:04:00,
2015-05-04 05:09:00,54.3,46.9,30.06,NNE,21,1.9,3.5,76,0.00,CLR,OVC,0.00,WeatherDisplay:10.37,2015-05-04 09:09:00,
2015-05-04 05:14:00,54.3,46.9,30.06,NNE,21,2.3,3.5,76,0.00,CLR,OVC,0.00,WeatherDisplay:10.37,2015-05-04 09:14:00,
2015-05-04 05:19:00,54.5,46.7,30.06,South,191,1.9,3.5,75,0.00,CLR,OVC,0.00,WeatherDisplay:10.37,2015-05-04 09:19:00,
2015-05-04 05:24:00,54.2,46.8,30.07,SW,234,3.1,4.6,76,0.00,CLR,OVC,0.00,WeatherDisplay:10.37,2015-05-04 09:24:00,
2015-05-04 05:29:00,53.9,46.9,30.07,SW,234,3.0,4.6,77,0.00,CLR,OVC,0.00,WeatherDisplay:10.37,2015-05-04 09:29:00,
2015-05-04 05:34:00,53.8,47.1,30.07,SW,234,2.4,4.0,78,0.00,CLR,OVC,0.00,WeatherDisplay:10.37,2015-05-04 09:34:00,
2015-05-04 05:39:00,53.8,47.1,30.07,SSW,198,4.3,8.1,78,0.00,CLR,OVC,0.00,WeatherDisplay:10.37,2015-05-04 09:39:00,
2015-05-04 05:44:00,55.2,47.8,30.07,SSW,199,7.9,12.0,76,0.00,CLR,OVC,0.00,WeatherDisplay:10.37,2015-05-04 09:44:00,
2015-05-04 05:49:00,57.6,48.3,30.06,SSE,168,7.9,11.5,71,0.00,CLR,OVC,0.00,WeatherDisplay:10.37,2015-05-04 09:49:00,
2015-05-04 05:54:00,59.2,48.2,30.07,SSW,202,7.5,11.5,67,0.00,CLR,OVC,0.00,WeatherDisplay:10.37,2015-05-04 09:54:00,
2015-05-04 05:59:00,60.3,48.5,30.07,SSW,203,7.0,12.0,65,0.00,CLR,OVC,0.00,WeatherDisplay:10.37,2015-05-04 09:59:00,
2015-05-04 06:04:00,61.1,48.4,30.07,SSW,200,8.0,11.5,63,0.00,CLR,OVC,0.00,WeatherDisplay:10.37,2015-05-04 10:04:00,
2015-05-04 06:09:00,61.6,48.4,30.07,SSW,211,6.9,11.5,62,0.00,CLR,OVC,0.00,WeatherDisplay:10.37,2015-05-04 10:09:00,
2015-05-04 06:14:00,60.6,48.8,30.07,SW,221,4.9,6.9,65,0.00,CLR,OVC,0.00,WeatherDisplay:10.37,2015-05-04 10:14:00,
2015-05-04 06:19:00,59.3,48.3,30.08,SW,221,4.3,5.0,67,0.00,CLR,OVC,0.00,WeatherDisplay:10.37,2015-05-04 10:19:00,
2015-05-04 06:24:00,58.4,48.3,30.08,SSW,210,6.5,10.4,69,0.00,CLR,OVC,0.00,WeatherDisplay:10.37,2015-05-04 10:24:00,
2015-05-04 06:29:00,58.8,48.3,30.08,SSW,204,6.6,9.2,68,0.00,CLR,OVC,0.00,WeatherDisplay:10.37,2015-05-04 10:29:00,
2015-05-04 06:34:00,59.5,48.5,30.08,SSW,208,8.5,11.5,67,0.00,CLR,OVC,0.00,WeatherDisplay:10.37,2015-05-04 10:34:00,
2015-05-04 06:39:00,59.9,49.3,30.08,SW,223,7.1,9.2,68,0.00,CLR,OVC,0.00,WeatherDisplay:10.37,2015-05-04 10:39:00,
2015-05-04 06:44:00,59.4,49.2,30.08,SW,215,5.4,8.1,69,0.00,CLR,OVC,0.00,WeatherDisplay:10.37,2015-05-04 10:44:00,
2015-05-04 06:49:00,59.1,48.9,30.08,SSW,204,6.0,8.1,69,0.00,CLR,OVC,0.00,WeatherDisplay:10.37,2015-05-04 10:49:00,
2015-05-04 06:54:00,59.7,49.1,30.08,SSW,213,7.2,9.2,68,0.00,CLR,OVC,0.00,WeatherDisplay:10.37,2015-05-04 10:54:00,
2015-05-04 06:59:00,60.3,48.9,30.08,South,191,10.4,13.0,66,0.00,CLR,OVC,0.00,WeatherDisplay:10.37,2015-05-04 10:59:00,
2015-05-04 07:04:00,61.7,49.0,30.08,SSW,209,10.6,13.8,63,0.00,CLR,OVC,0.00,WeatherDisplay:10.37,2015-05-04 11:04:00,
2015-05-04 07:09:00,62.7,49.5,30.09,SSW,199,9.8,12.7,62,0.00,CLR,OVC,0.00,WeatherDisplay:10.37,2015-05-04 11:09:00,
2015-05-04 07:14:00,62.9,50.1,30.09,SW,214,7.0,11.5,63,0.00,CLR,OVC,0.00,WeatherDisplay:10.37,2015-05-04 11:14:00,
2015-05-04 07:19:00,62.8,50.0,30.09,SW,214,8.2,10.4,63,0.00,CLR,OVC,0.00,WeatherDisplay:10.37,2015-05-04 11:19:00,
2015-05-04 07:24:00,62.9,50.5,30.09,SW,219,8.4,11.5,64,0.00,CLR,OVC,0.00,WeatherDisplay:10.37,2015-05-04 11:24:00,
2015-05-04 07:29:00,63.1,50.3,30.09,SSW,203,8.6,11.5,63,0.00,CLR,OVC,0.00,WeatherDisplay:10.37,2015-05-04 11:29:00,
2015-05-04 07:34:00,63.5,50.7,30.10,SW,220,6.6,8.1,63,0.00,CLR,OVC,0.00,WeatherDisplay:10.37,2015-05-04 11:34:00,
2015-05-04 07:39:00,64.1,50.4,30.09,SSW,193,10.5,13.8,61,0.00,CLR,OVC,0.00,WeatherDisplay:10.37,2015-05-04 11:39:00,
2015-05-04 07:44:00,64.6,50.4,30.09,SSW,203,8.9,11.5,60,0.00,CLR,OVC,0.00,WeatherDisplay:10.37,2015-05-04 11:44:00,
2015-05-04 07:49:00,65.3,50.1,30.10,SSW,207,10.6,13.8,58,0.00,CLR,OVC,0.00,WeatherDisplay:10.37,2015-05-04 11:49:00,
2015-05-04 07:54:00,65.8,49.7,30.10,SW,218,14.7,19.6,56,0.00,CLR,OVC,0.00,WeatherDisplay:10.37,2015-05-04 11:54:00,
2015-05-04 07:59:00,66.1,50.4,30.10,SSW,202,8.8,11.5,57,0.00,CLR,OVC,0.00,WeatherDisplay:10.37,2015-05-04 11:59:00,
2015-05-04 08:04:00,66.4,50.7,30.10,SSW,206,10.1,13.8,57,0.00,CLR,OVC,0.00,WeatherDisplay:10.37,2015-05-04 12:04:00,
2015-05-04 08:09:00,66.5,50.3,30.10,SSW,205,11.3,15.0,56,0.00,CLR,OVC,0.00,WeatherDisplay:10.37,2015-05-04 12:09:00,
2015-05-04 08:14:00,66.8,50.6,30.10,SSW,205,10.5,13.8,56,0.00,CLR,OVC,0.00,WeatherDisplay:10.37,2015-05-04 12:14:00,
2015-05-04 08:19:00,67.1,50.9,30.10,SSW,212,9.7,13.8,56,0.00,CLR,OVC,0.00,WeatherDisplay:10.37,2015-05-04 12:19:00,
2015-05-04 08:24:00,67.4,51.2,30.09,South,182,8.6,11.5,56,0.00,CLR,OVC,0.00,WeatherDisplay:10.37,2015-05-04 12:24:00,
2015-05-04 08:29:00,67.7,50.9,30.10,SSW,203,12.6,18.4,55,0.00,CLR,OVC,0.00,WeatherDisplay:10.37,2015-05-04 12:29:00,
2015-05-04 08:34:00,68.1,51.8,30.09,South,187,7.5,13.0,56,0.00,CLR,OVC,0.00,WeatherDisplay:10.37,2015-05-04 12:34:00,
2015-05-04 08:39:00,68.4,51.6,30.09,South,188,10.5,15.0,55,0.00,CLR,OVC,0.00,WeatherDisplay:10.37,2015-05-04 12:39:00,
2015-05-04 08:44:00,68.6,51.3,30.09,South,189,9.1,12.7,54,0.00,CLR,OVC,0.00,WeatherDisplay:10.37,2015-05-04 12:44:00,
2015-05-04 08:49:00,68.8,51.0,30.09,South,190,13.8,19.6,53,0.00,CLR,OVC,0.00,WeatherDisplay:10.37,2015-05-04 12:49:00,
2015-05-04 08:54:00,69.1,50.7,30.09,SW,218,10.1,14.0,52,0.00,CLR,OVC,0.00,WeatherDisplay:10.37,2015-05-04 12:54:00,
2015-05-04 08:59:00,69.6,51.7,30.09,SSW,203,10.3,15.0,53,0.00,CLR,OVC,0.00,WeatherDisplay:10.37,2015-05-04 12:59:00,
2015-05-04 09:04:00,70.1,52.2,30.09,SSW,208,10.1,12.7,53,0.00,CLR,OVC,0.00,WeatherDisplay:10.37,2015-05-04 13:04:00,
2015-05-04 09:09:00,70.3,51.8,30.09,SSW,195,11.5,19.6,52,0.00,CLR,OVC,0.00,WeatherDisplay:10.37,2015-05-04 13:09:00,
2015-05-04 09:14:00,70.5,51.5,30.09,SSW,197,14.8,19.6,51,0.00,CLR,OVC,0.00,WeatherDisplay:10.37,2015-05-04 13:14:00,
2015-05-04 09:19:00,70.8,51.8,30.09,South,190,14.9,19.6,51,0.00,CLR,OVC,0.00,WeatherDisplay:10.37,2015-05-04 13:19:00,
2015-05-04 09:24:00,71.1,51.5,30.08,SSW,200,13.1,16.1,50,0.00,CLR,OVC,0.00,WeatherDisplay:10.37,2015-05-04 13:24:00,
2015-05-04 09:29:00,71.4,51.2,30.08,SSW,209,9.1,19.6,49,0.00,CLR,OVC,0.00,WeatherDisplay:10.37,2015-05-04 13:29:00,
2015-05-04 09:34:00,71.9,51.7,30.08,SSW,200,10.5,18.4,49,0.00,CLR,OVC,0.00,WeatherDisplay:10.37,2015-05-04 13:34:00,
2015-05-04 09:39:00,72.2,52.0,30.08,SSW,192,9.1,11.5,49,0.00,CLR,OVC,0.00,WeatherDisplay:10.37,2015-05-04 13:39:00,
2015-05-04 09:44:00,72.6,52.3,30.08,SSW,198,13.5,18.4,49,0.00,CLR,OVC,0.00,WeatherDisplay:10.37,2015-05-04 13:44:00,
2015-05-04 09:49:00,72.8,51.4,30.08,SSW,206,12.3,20.7,47,0.00,CLR,OVC,0.00,WeatherDisplay:10.37,2015-05-04 13:49:00,
2015-05-04 09:54:00,73.1,52.2,30.08,SSE,165,14.7,18.4,48,0.00,CLR,OVC,0.00,WeatherDisplay:10.37,2015-05-04 13:54:00,
2015-05-04 09:59:00,73.2,51.8,30.07,South,177,13.2,19.6,47,0.00,CLR,OVC,0.00,WeatherDisplay:10.37,2015-05-04 13:59:00,
2015-05-04 10:04:00,73.5,51.4,30.07,South,185,10.2,18.0,46,0.00,CLR,OVC,0.00,WeatherDisplay:10.37,2015-05-04 14:04:00,
2015-05-04 10:09:00,74.0,52.5,30.07,South,189,11.9,16.0,47,0.00,CLR,OVC,0.00,WeatherDisplay:10.37,2015-05-04 14:09:00,
2015-05-04 10:14:00,74.1,52.0,30.06,SSW,203,13.7,18.4,46,0.00,CLR,OVC,0.00,WeatherDisplay:10.37,2015-05-04 14:14:00,
2015-05-04 10:19:00,74.3,52.8,30.06,SSW,194,12.1,17.3,47,0.00,CLR,OVC,0.00,WeatherDisplay:10.37,2015-05-04 14:19:00,
2015-05-04 10:24:00,74.7,52.5,30.06,SSW,205,13.2,18.4,46,0.00,CLR,OVC,0.00,WeatherDisplay:10.37,2015-05-04 14:24:00,
2015-05-04 10:29:00,74.9,52.7,30.06,SSE,168,11.5,17.3,46,0.00,CLR,OVC,0.00,WeatherDisplay:10.37,2015-05-04 14:29:00,
2015-05-04 10:34:00,75.4,52.6,30.06,SSW,204,9.5,18.4,45,0.00,CLR,OVC,0.00,WeatherDisplay:10.37,2015-05-04 14:34:00,
2015-05-04 10:39:00,75.9,52.4,30.06,South,169,9.8,12.7,44,0.00,CLR,OVC,0.00,WeatherDisplay:10.37,2015-05-04 14:39:00,
2015-05-04 10:44:00,76.6,52.4,30.06,South,180,11.2,16.0,43,0.00,CLR,OVC,0.00,WeatherDisplay:10.37,2015-05-04 14:44:00,
2015-05-04 10:49:00,77.1,52.9,30.06,SSW,198,10.3,18.4,43,0.00,CLR,OVC,0.00,WeatherDisplay:10.37,2015-05-04 14:49:00,
2015-05-04 10:54:00,77.7,54.0,30.06,South,191,10.5,17.3,44,0.00,CLR,OVC,0.00,WeatherDisplay:10.37,2015-05-04 14:54:00,
2015-05-04 10:59:00,78.0,54.3,30.05,South,172,9.8,13.8,44,0.00,CLR,OVC,0.00,WeatherDisplay:10.37,2015-05-04 14:59:00,
2015-05-04 11:04:00,78.4,54.0,30.05,SSW,198,11.5,13.8,43,0.00,CLR,OVC,0.00,WeatherDisplay:10.37,2015-05-04 15:04:00,
2015-05-04 11:09:00,78.7,53.7,30.05,South,187,13.7,17.3,42,0.00,CLR,OVC,0.00,WeatherDisplay:10.37,2015-05-04 15:09:00,
2015-05-04 11:14:00,78.8,53.1,30.05,South,177,8.2,12.7,41,0.00,CLR,OVC,0.00,WeatherDisplay:10.37,2015-05-04 15:14:00,
2015-05-04 11:19:00,79.1,53.4,30.05,SSW,207,10.1,13.8,41,0.00,CLR,OVC,0.00,WeatherDisplay:10.37,2015-05-04 15:19:00,
2015-05-04 11:24:00,79.2,54.1,30.05,South,171,10.3,16.1,42,0.00,CLR,OVC,0.00,WeatherDisplay:10.37,2015-05-04 15:24:00,
2015-05-04 11:29:00,79.5,54.4,30.05,South,189,13.0,17.3,42,0.00,CLR,OVC,0.00,WeatherDisplay:10.37,2015-05-04 15:29:00,
2015-05-04 11:34:00,79.6,53.8,30.04,SSW,201,10.7,16.1,41,0.00,CLR,OVC,0.00,WeatherDisplay:10.37,2015-05-04 15:34:00,
2015-05-04 11:39:00,80.0,54.2,30.04,SSW,207,11.3,15.0,41,0.00,CLR,OVC,0.00,WeatherDisplay:10.37,2015-05-04 15:39:00,
2015-05-04 11:44:00,80.1,53.6,30.04,SSW,194,11.9,17.3,40,0.00,CLR,OVC,0.00,WeatherDisplay:10.37,2015-05-04 15:44:00,
2015-05-04 11:49:00,80.3,53.1,30.03,SE,137,12.4,17.3,39,0.00,CLR,OVC,0.00,WeatherDisplay:10.37,2015-05-04 15:49:00,
2015-05-04 11:54:00,80.5,52.6,30.03,South,178,9.6,15.0,38,0.00,CLR,OVC,0.00,WeatherDisplay:10.37,2015-05-04 15:54:00,
2015-05-04 11:59:00,81.0,54.4,30.04,SW,233,13.3,18.4,40,0.00,CLR,OVC,0.00,WeatherDisplay:10.37,2015-05-04 15:59:00,
2015-05-04 12:04:00,81.3,54.0,30.03,SW,221,12.0,13.8,39,0.00,CLR,OVC,0.00,WeatherDisplay:10.37,2015-05-04 16:04:00,
2015-05-04 12:09:00,81.9,53.1,30.03,SSW,198,13.0,18.4,37,0.00,CLR,OVC,0.00,WeatherDisplay:10.37,2015-05-04 16:09:00,
2015-05-04 12:14:00,82.1,55.4,30.02,SW,225,8.1,11.5,40,0.00,CLR,OVC,0.00,WeatherDisplay:10.37,2015-05-04 16:14:00,
2015-05-04 12:19:00,82.5,53.6,30.02,SSW,195,8.2,11.5,37,0.00,CLR,OVC,0.00,WeatherDisplay:10.37,2015-05-04 16:19:00,
2015-05-04 12:24:00,82.7,53.0,30.02,South,181,11.9,20.0,36,0.00,CLR,OVC,0.00,WeatherDisplay:10.37,2015-05-04 16:24:00,
2015-05-04 12:29:00,82.3,52.7,30.01,South,177,12.3,16.1,36,0.00,CLR,OVC,0.00,WeatherDisplay:10.37,2015-05-04 16:29:00,
2015-05-04 12:34:00,82.0,52.4,30.01,SSW,196,10.8,16.1,36,0.00,CLR,OVC,0.00,WeatherDisplay:10.37,2015-05-04 16:34:00,
2015-05-04 12:39:00,81.6,51.3,30.01,SSW,194,14.1,21.9,35,0.00,CLR,OVC,0.00,WeatherDisplay:10.37,2015-05-04 16:39:00,
2015-05-04 12:44:00,81.8,52.2,30.00,SSW,200,7.7,11.5,36,0.00,CLR,OVC,0.00,WeatherDisplay:10.37,2015-05-04 16:44:00,
2015-05-04 12:49:00,82.7,51.5,30.00,SSW,195,16.5,20.7,34,0.00,CLR,OVC,0.00,WeatherDisplay:10.37,2015-05-04 16:49:00,
2015-05-04 12:54:00,82.7,52.3,30.00,SSW,198,11.2,15.0,35,0.00,CLR,OVC,0.00,WeatherDisplay:10.37,2015-05-04 16:54:00,
2015-05-04 12:59:00,82.6,50.6,30.00,SSW,207,15.9,21.0,33,0.00,CLR,OVC,0.00,WeatherDisplay:10.37,2015-05-04 16:59:00,
2015-05-04 13:04:00,82.3,51.1,30.00,SSW,213,12.4,18.4,34,0.00,CLR,OVC,0.00,WeatherDisplay:10.37,2015-05-04 17:04:00,
2015-05-04 13:09:00,83.1,54.1,30.00,SW,217,11.4,16.0,37,0.00,CLR,OVC,0.00,WeatherDisplay:10.37,2015-05-04 17:09:00,
2015-05-04 13:14:00,83.8,52.4,29.99,SSW,207,12.4,22.0,34,0.00,CLR,OVC,0.00,WeatherDisplay:10.37,2015-05-04 17:14:00,
2015-05-04 13:19:00,84.1,51.9,29.99,SSW,210,13.4,19.6,33,0.00,CLR,OVC,0.00,WeatherDisplay:10.37,2015-05-04 17:19:00,
2015-05-04 13:24:00,84.4,52.1,29.99,SW,214,13.2,19.6,33,0.00,CLR,OVC,0.00,WeatherDisplay:10.37,2015-05-04 17:24:00,